Decoded Metar for UKLU (UZHGOROD in UKRAINE) (IATA:UDJ) | Meteo·Mobile Aviation Weather
aviador You're here:

UKLU Decoded Metar

UZHGOROD in UKRAINE
Report Time2018-08-18 08:00:00
UTC Time2018-08-18 08:17:13
Flight Rules vfr VFR
WindCalm
Visibility9999 m
Phenomena:N/A
Clouds:N/A
Expected CloudBase > 3,200 ft AGL from Temp-Dew spread
CeilingNone
Temp25°C (ISA +11)
Dew Point17°C (61% RH)
QNH1018 hPa
Density Alt1,719 ft
Elevation384 ft
Report Wrong Elevation
Raw Report
UKLU 180800Z 00000MPS 9999 NSC 25/17 Q1018 R10/090070 NOSIG=

Extra information for UKLU:More info

Metar Taf Metar & Taf Last 4 Metars F.Rules Stats Wind Profile Meteogram Temp Stats Airport Information Weather charts Add Link Nearby VenuesMetar ALERT Operation Metar Decoded Social comments